Time,TemperatureF,DewpointF,PressureIn,WindDirection,WindDirectionDegrees,WindSpeedMPH,WindSpeedGustMPH,Humidity,HourlyPrecipIn,Conditions,Clouds,dailyrainin,SoftwareType,DateUTC
2013-10-02 00:00:00,62.2,57.0,30.12,SW,225,0.0,0.0,83,0.00,,OVC,0.00,VWS V14.01,2013-10-02 04:00:00,
2013-10-02 01:00:00,62.2,57.3,30.11,SW,225,0.0,0.0,84,0.00,,OVC,0.00,VWS V14.01,2013-10-02 05:00:00,
2013-10-02 02:00:00,62.2,58.0,30.11,SW,225,0.0,0.0,86,0.00,,OVC,0.00,VWS V14.01,2013-10-02 06:00:00,
2013-10-02 03:00:00,61.7,58.1,30.10,SW,225,0.0,1.0,88,0.00,,OVC,0.00,VWS V14.01,2013-10-02 07:00:00,
2013-10-02 04:00:00,62.0,58.1,30.09,SW,225,0.0,1.0,87,0.00,,OVC,0.00,VWS V14.01,2013-10-02 08:00:00,
2013-10-02 05:00:00,62.2,58.3,30.09,SW,225,0.0,1.0,87,0.00,,OVC,0.00,VWS V14.01,2013-10-02 09:00:00,
2013-10-02 06:00:00,62.7,58.8,30.09,SW,225,0.0,1.0,87,0.00,,OVC,0.00,VWS V14.01,2013-10-02 10:00:00,
2013-10-02 07:00:00,63.3,58.7,30.11,SW,225,0.0,3.0,85,0.00,,OVC,0.00,VWS V14.01,2013-10-02 11:00:00,
2013-10-02 08:00:00,63.7,57.8,30.13,NNE,22,1.0,4.0,81,0.00,,OVC,0.00,VWS V14.01,2013-10-02 12:00:00,
2013-10-02 09:00:00,64.0,58.1,30.15,West,270,1.0,10.0,81,0.00,,OVC,0.00,VWS V14.01,2013-10-02 13:00:00,
2013-10-02 10:00:00,64.8,58.8,30.15,SW,225,2.0,10.0,81,0.00,,OVC,0.00,VWS V14.01,2013-10-02 14:00:00,
2013-10-02 11:00:00,66.5,59.8,30.14,SW,225,2.0,10.0,79,0.00,,OVC,0.00,VWS V14.01,2013-10-02 15:00:00,
2013-10-02 12:00:00,68.8,60.2,30.14,SW,225,1.0,11.0,74,0.00,,OVC,0.00,VWS V14.01,2013-10-02 16:00:00,
2013-10-02 13:00:00,71.2,61.7,30.12,SW,225,1.0,11.0,72,0.00,,OVC,0.00,VWS V14.01,2013-10-02 17:00:00,
2013-10-02 14:00:00,74.2,60.8,30.10,West,270,1.0,8.0,63,0.00,,OVC,0.00,VWS V14.01,2013-10-02 18:00:00,
2013-10-02 15:00:00,75.7,63.1,30.08,WSW,248,0.0,3.0,65,0.00,,OVC,0.00,VWS V14.01,2013-10-02 19:00:00,
2013-10-02 16:00:00,74.9,63.6,30.07,WSW,248,0.0,4.0,68,0.00,,OVC,0.00,VWS V14.01,2013-10-02 20:00:00,
2013-10-02 17:00:00,73.5,62.3,30.07,WSW,248,0.0,4.0,68,0.00,,OVC,0.00,VWS V14.01,2013-10-02 21:00:00,
2013-10-02 18:00:00,70.3,63.8,30.07,WSW,248,0.0,3.0,80,0.00,,OVC,0.00,VWS V14.01,2013-10-02 22:00:00,
2013-10-02 19:00:00,66.0,60.7,30.08,WSW,248,0.0,0.0,83,0.00,,OVC,0.00,VWS V14.01,2013-10-02 23:00:00,
2013-10-02 20:00:00,65.8,59.8,30.09,WSW,248,0.0,0.0,81,0.00,,OVC,0.00,VWS V14.01,2013-10-03 00:00:00,
2013-10-02 21:00:00,65.9,59.9,30.09,WSW,248,0.0,0.0,81,0.00,,OVC,0.00,VWS V14.01,2013-10-03 01:00:00,
2013-10-02 22:00:00,65.6,61.3,30.10,WSW,248,0.0,1.0,86,0.00,,OVC,0.00,VWS V14.01,2013-10-03 02:00:00,
2013-10-02 23:00:00,64.5,60.5,30.11,WSW,248,0.0,0.0,87,0.00,,OVC,0.00,VWS V14.01,2013-10-03 03:00:00,